AirNav   Pilot Hours Calculator
 
 1158 users online  

SN35 Menorah Medical Park Heliport
Overland Park, Kansas, USA

GOING TO OVERLAND PARK?


FAA INFORMATION EFFECTIVE 02 JANUARY 2020

Location

FAA Identifier: SN35
Lat/Long: 38-54-39.2300N 094-39-01.3200W
38-54.653833N 094-39.022000W
38.9108972,-94.6503667
(estimated)
Elevation: 907 ft. / 276 m (estimated)
Variation: 04E (1995)
Time zone: UTC -6 (UTC -5 during Daylight Saving Time)
Zip code: 66209

Heliport Operations

Heliport use: Private use, FOR MEDICAL USE ONLY.
Activation date: 05/1998
Control tower: no
ARTCC: KANSAS CITY CENTER
FSS: COLUMBIA FLIGHT SERVICE STATION
Attendance: CONTINUOUS
Segmented circle: no
Lights: FOR PERIMETER LGTS CALL 913-498-6000.

Heliport Communications

WX ASOS at OJC (6 nm SW): PHONE 913-780-6969
WX ASOS at IXD (12 nm SW): 135.325 (913-780-6987)
WX ASOS at MKC (13 nm N): PHONE 816-329-2843
WX ASOS at LXT (13 nm E): 124.175 (816-347-9807)

Nearby radio navigation aids

VOR radial/distance  VOR name  Freq  Var
MCIr165/22.8KANSAS CITY VORTAC113.2505E
ANXr239/26.7NAPOLEON VORTAC114.0007E
BUMr342/39.1BUTLER VORTAC115.9007E

 
NDB name  Hdg/Dist  Freq  Var  ID
HERBB019/10.342004EPK .--. -.-

Heliport Services

Runway Information

Helipad H1

Dimensions: 40 x 40 ft. / 12 x 12 m
Surface: concrete
Runway edge lights: PERI
Latitude: 38-54.653833N
Longitude: 094-39.022000W
Elevation: 907.0 ft.
Traffic pattern: leftleft

Heliport Ownership and Management from official FAA records

Ownership: Privately-owned
Owner: MENORAH MEDICAL CENTER
5721 W 119TH STREET
OVERLAND PARK, KS 66209
Phone 913-498-6773
Manager: CHARLES E. LAIRD
5721 W. 119TH STREET
OVERLAND PARK, KS 66209
Phone 913-498-6773

Additional Remarks

A52-H1 POWERLINES AND LIGHT POLES EAST OF HELIPADS; BLDGS 75 FT SW OF HELIPAD.
OWNER DESIRES ARPT NOT BE CHARTED.
FOR CD CTC KANSAS CITY APCH AT 816-329-2710.

Instrument Procedures

There are no published instrument procedures at SN35.

Some nearby airports with instrument procedures:

KOJC - Johnson County Executive Airport (6 nm SW)
KIXD - New Century AirCenter Airport (12 nm SW)
KMKC - Charles B Wheeler Downtown Airport (13 nm N)
KLXT - Lee's Summit Municipal Airport (13 nm E)
3GV - East Kansas City Airport (21 nm E)
 
Loc | Ops | Rwys | IFR | FBO | Links
Com | Nav | Svcs | Stats | Notes

Kansas City Aviation Department
 
Area around SN35 (Menorah Medical Park Heliport)
 
Road maps at: MapQuest Bing Google
 
Aerial photo
No photo
 
Sectional chart

 
Airport distance calculator
Flying to Menorah Medical Park Heliport? Find the distance to fly.

From to SN35

Sunrise and sunset
Times for 29-Jan-2020
 Local
(UTC-6)
 Zulu
(UTC)
Morning civil twilight07:0013:00
Sunrise07:2813:28
Sunset17:3523:35
Evening civil twilight18:0300:03

Current date and time
Zulu (UTC)  29-Jan-2020 12:45:54
Local (UTC-6)  29-Jan-2020 06:45:54
 
METAR
KOJC 
5nm SW 
291239Z AUTO 05005KT 4SM -SN BR OVC055 M03/M03 A3012 RMK AO2 P0000 T10281033
KIXD 
12nm SW 
291229Z 02003KT 3SM -SN BR FEW006 BKN037 OVC060 M02/M03 A3012 RMK AO2 P0000 T10221033
KMKC 
13nm N 
291227Z 01005KT 2SM -SN BR BKN009 OVC029 M02/M04 A3014 RMK AO2 P0000 T10221039
KLXT 
14nm E 
291239Z AUTO 05005KT 2SM -SN BR BKN008 OVC032 M02/M04 A3013 RMK AO2 P0001 T10221039
TAF
KIXD 
12nm SW 
291120Z 2912/3012 02006KT 1SM -SN BR OVC015 TEMPO 2912/2913 4SM -SN BKN006 OVC010 FM291300 04005KT P6SM OVC009 FM291800 01005KT P6SM OVC012 FM300200 VRB03KT 6SM BR OVC008 FM300800 14003KT 3SM BR OVC005
KMKC 
13nm N 
291120Z 2912/3012 03005KT 1 1/2SM -SN BR OVC009 TEMPO 2912/2913 4SM -SN SCT006 OVC020 FM291300 04005KT P6SM OVC009 FM291800 01005KT P6SM OVC012 FM300200 VRB03KT 6SM BR OVC008 FM300800 14003KT 3SM BR OVC005
NOTAMs
Click for the latest NOTAMs
NOTAMs are issued by the DoD/FAA and will open in a separate window not controlled by AirNav.

 

 
 

Would you like to see your business listed on this page?

 If your business provides an interesting product or service to pilots, flight crews, aircraft, or users of the Menorah Medical Park Heliport, you should consider listing it here.  To start the listing process, click on the button below
 
Add a business
 

Other Pages about Menorah Medical Park Heliport

Update a link
 
Copyright © AirNav, LLC. All rights reserved. Privacy Policy  Contact